Latest Coastal Weather Observations for Noarlunga

IDS60701

Issued at 8:51 pm CDT Monday 5 December 2016 (issued every 10 minutes, with the page automatically refreshed every 10 minutes)

About coastal observations | Map of coastal stations | Coastal observations for SA | Marine services | Other Formats
Station Details ID: 023885 Name: NOARLUNGA Lat: -35.16 Lon: 138.51 Height: 55.0 m
Data from the previous 72 hours. | See also: Recent months at Noarlunga
Date/Time
CDT
Temp
°C
Wind Pressure Rain since
9am
mm
Weather Cloud Vis
km
Sea
Height
m
Swell
Dir  Spd
kts
Gust
kts
hPa Trend Height
m
Period
s
Dir
05/08:30pm 15.3 SE 9 15 - - 0.0 - - - - - - -
05/08:00pm 15.6 SE 12 19 - - 0.0 - - - - - - -
05/07:30pm 15.9 SE 12 17 - - 0.0 - - - - - - -
05/07:00pm 16.4 SE 12 17 - - 0.0 - - - - - - -
05/06:30pm 17.0 SSE 10 14 - - 0.0 - - - - - - -
05/06:00pm 17.9 SSE 10 14 - - 0.0 - - - - - - -
05/05:30pm 19.4 S 7 12 - - 0.0 - - - - - - -
05/05:00pm 19.9 SW 8 14 - - 0.0 - - - - - - -
05/04:30pm 19.6 SW 9 15 - - 0.0 - - - - - - -
05/04:00pm 19.1 SW 9 12 - - 0.0 - - - - - - -
05/03:30pm 20.0 SW 10 16 - - 0.0 - - - - - - -
05/03:00pm 20.3 WSW 9 15 - - 0.0 - - - - - - -
05/02:30pm 19.0 WSW 10 15 - - 0.0 - - - - - - -
05/02:00pm 19.9 WSW 8 11 - - 0.0 - - - - - - -
05/01:30pm 20.7 ESE 3 8 - - 0.0 - - - - - - -
05/01:00pm 19.9 SSE 7 11 - - 0.0 - - - - - - -
05/12:30pm 19.9 S 7 11 - - 0.0 - - - - - - -
05/12:00pm 19.4 WSW 7 11 - - 0.0 - - - - - - -
05/11:30am 18.6 WSW 8 13 - - 0.0 - - - - - - -
05/11:00am 18.2 SW 7 11 - - 0.0 - - - - - - -
05/10:30am 19.0 SW 5 9 - - 0.0 - - - - - - -
05/10:00am 18.2 SSW 4 6 - - 0.0 - - - - - - -
05/09:30am 17.9 SSW 5 7 - - 0.0 - - - - - - -
05/09:00am 16.8 S 4 7 - - 2.0 - - - - - - -
05/08:30am 16.7 SSW 6 10 - - 2.0 - - - - - - -
05/08:00am 15.4 S 7 10 - - 2.0 - - - - - - -
05/07:30am 15.3 S 4 6 - - 2.0 - - - - - - -
05/07:00am 14.2 SSE 3 5 - - 2.0 - - - - - - -
05/06:30am 13.0 SSE 3 4 - - 2.0 - - - - - - -
05/06:00am 13.3 SSE 6 7 - - 2.0 - - - - - - -
05/05:30am 12.5 SSE 4 7 - - 2.0 - - - - - - -
05/05:00am 12.9 S 4 5 - - 2.0 - - - - - - -
05/04:30am 13.1 SSW 3 5 - - 2.0 - - - - - - -
05/04:00am 13.0 SSW 3 6 - - 2.0 - - - - - - -
05/03:30am 12.6 SSE 2 4 - - 2.0 - - - - - - -
05/03:00am 13.2 S 3 4 - - 2.0 - - - - - - -
05/02:30am 14.1 SSW 3 5 - - 2.0 - - - - - - -
05/02:00am 14.8 SSW 4 8 - - 2.0 - - - - - - -
05/01:30am 15.4 SW 4 7 - - 2.0 - - - - - - -
05/01:00am 16.1 SSW 7 11 - - 2.0 - - - - - - -
05/12:30am 16.6 SSW 6 14 - - 2.0 - - - - - - -
05/12:00am 16.6 SW 9 17 - - 2.0 - - - - - - -
 
Date/Time
CDT
Temp
°C
Wind Pressure Rain since
9am
mm
Weather Cloud Vis
km
Sea
Height
m
Swell
Dir  Spd
kts
Gust
kts
hPa Trend Height
m
Period
s
Dir
04/11:30pm 16.9 SW 7 11 - - 2.0 - - - - - - -
04/11:00pm 17.4 SW 10 15 - - 2.0 - - - - - - -
04/10:30pm 18.1 WSW 9 17 - - 2.0 - - - - - - -
04/10:00pm 18.5 WSW 10 19 - - 2.0 - - - - - - -
04/09:30pm 19.0 W 4 7 - - 2.0 - - - - - - -
04/09:00pm 19.7 W 5 7 - - 2.0 - - - - - - -
04/08:30pm 20.4 WSW 5 11 - - 2.0 - - - - - - -
04/08:00pm 22.0 WSW 10 17 - - 2.0 - - - - - - -
04/07:46pm 24.8 NW 12 29 - - 2.0 - - - - - - -
04/07:30pm 26.7 NNW 11 17 - - 2.0 - - - - - - -
04/07:00pm 27.7 N 12 18 - - 2.0 - - - - - - -
04/06:30pm 28.4 N 12 17 - - 2.0 - - - - - - -
04/06:00pm 28.5 N 12 17 - - 2.0 - - - - - - -
04/05:30pm 27.8 N 14 19 - - 2.0 - - - - - - -
04/05:00pm 27.9 N 14 22 - - 2.0 - - - - - - -
04/04:30pm 26.9 N 14 21 - - 2.0 - - - - - - -
04/04:00pm 26.1 N 12 17 - - 2.0 - - - - - - -
04/03:30pm 25.8 NNE 11 19 - - 2.0 - - - - - - -
04/03:00pm 25.0 NNE 13 18 - - 2.0 Recent precip. - - - - - -
04/02:30pm 22.8 NNE 12 18 - - 2.0 - - - - - - -
04/02:00pm 23.7 N 16 22 - - 1.4 - - - - - - -
04/01:30pm 23.6 N 13 24 - - 1.4 - - - - - - -
04/01:00pm 21.8 N 11 16 - - 1.4 - - - - - - -
04/12:30pm 22.5 N 14 21 - - 0.8 - - - - - - -
04/12:00pm 22.4 N 16 24 - - 0.8 - - - - - - -
04/11:30am 22.3 N 13 20 - - 0.8 - - - - - - -
04/11:08am 22.5 N 15 25 - - 0.8 - - - - - - -
04/11:00am 22.2 N 14 21 - - 0.8 - - - - - - -
04/10:30am 22.4 N 11 15 - - 0.4 - - - - - - -
04/10:00am 22.5 N 14 20 - - 0.0 - - - - - - -
04/09:30am 23.4 N 16 26 - - 0.0 - - - - - - -
04/09:13am 24.3 N 17 28 - - 0.0 - - - - - - -
04/09:00am 26.2 N 14 22 - - 0.0 - - - - - - -
04/08:30am 25.2 N 14 19 - - 0.0 - - - - - - -
04/08:00am 23.9 NNE 13 19 - - 0.0 - - - - - - -
04/07:30am 21.9 N 13 21 - - 0.0 - - - - - - -
04/07:00am 20.5 CALM 0 0 - - 0.0 - - - - - - -
04/06:30am 19.9 E 1 2 - - 0.0 - - - - - - -
04/06:00am 19.3 NW 2 3 - - 0.0 - - - - - - -
04/05:30am 18.9 CALM 0 2 - - 0.0 - - - - - - -
04/05:00am 19.4 CALM 0 0 - - 0.0 - - - - - - -
04/04:30am 18.9 ENE 2 3 - - 0.0 - - - - - - -
04/04:00am 18.9 ESE 3 5 - - 0.0 - - - - - - -
04/03:30am 19.1 ESE 4 7 - - 0.0 - - - - - - -
04/03:00am 19.2 NE 2 4 - - 0.0 - - - - - - -
04/02:30am 19.9 ENE 4 9 - - 0.0 - - - - - - -
04/02:00am 19.9 ENE 7 10 - - 0.0 - - - - - - -
04/01:30am 19.9 E 6 10 - - 0.0 - - - - - - -
04/01:00am 19.5 ESE 5 7 - - 0.0 - - - - - - -
04/12:30am 20.0 E 5 8 - - 0.0 - - - - - - -
04/12:00am 20.7 E 4 7 - - 0.0 - - - - - - -
 
Date/Time
CDT
Temp
°C
Wind Pressure Rain since
9am
mm
Weather Cloud Vis
km
Sea
Height
m
Swell
Dir  Spd
kts
Gust
kts
hPa Trend Height
m
Period
s
Dir
03/11:30pm 20.8 ESE 8 12 - - 0.0 - - - - - - -
03/11:00pm 21.2 ESE 5 8 - - 0.0 - - - - - - -
03/10:30pm 21.5 ESE 3 7 - - 0.0 - - - - - - -
03/10:00pm 21.5 ESE 3 5 - - 0.0 - - - - - - -
03/09:30pm 21.7 E 4 5 - - 0.0 - - - - - - -
03/09:00pm 21.9 SE 2 3 - - 0.0 - - - - - - -
03/08:30pm 22.9 SE 1 2 - - 0.0 - - - - - - -
03/08:00pm 23.6 SE 1 3 - - 0.0 - - - - - - -
03/07:30pm 23.3 S 2 4 - - 0.0 - - - - - - -
03/07:00pm 23.8 SW 4 7 - - 0.0 - - - - - - -
03/06:30pm 25.7 SW 6 8 - - 0.0 - - - - - - -
03/06:00pm 27.8 W 5 7 - - 0.0 - - - - - - -
03/05:30pm 27.8 WNW 1 3 - - 0.0 - - - - - - -
03/05:00pm 27.7 WSW 4 7 - - 0.0 - - - - - - -
03/04:30pm 24.8 SW 6 10 - - 0.0 - - - - - - -
03/04:00pm 25.0 WSW 8 11 - - 0.0 - - - - - - -
03/03:30pm 25.8 SW 6 8 - - 0.0 - - - - - - -
03/03:00pm 25.9 SW 8 11 - - 0.0 - - - - - - -
03/02:30pm 27.7 WSW 4 7 - - 0.0 - - - - - - -
03/02:00pm 26.3 W 3 6 - - 0.0 - - - - - - -
03/01:30pm 25.0 WSW 4 8 - - 0.0 - - - - - - -
03/01:00pm 24.6 WSW 5 8 - - 0.0 - - - - - - -
03/12:30pm 23.8 W 8 11 - - 0.0 - - - - - - -
03/12:00pm 25.9 S 4 9 - - 0.0 - - - - - - -
03/11:30am 24.7 E 5 9 - - 0.0 - - - - - - -
03/11:00am 23.4 E 6 9 - - 0.0 - - - - - - -
03/10:30am 21.8 E 5 8 - - 0.0 - - - - - - -
03/10:00am 21.0 E 7 10 - - 0.0 - - - - - - -
03/09:30am 18.8 E 10 13 - - 0.0 - - - - - - -
03/09:00am 17.7 E 10 16 - - 0.0 - - - - - - -
03/08:30am 16.6 ESE 11 15 - - 0.0 - - - - - - -
03/08:00am 15.1 E 12 20 - - 0.0 - - - - - - -
03/07:30am 13.8 E 12 17 - - 0.0 - - - - - - -
03/07:00am 12.8 E 13 20 - - 0.0 - - - - - - -
03/06:30am 12.2 E 12 20 - - 0.0 - - - - - - -
03/06:00am 11.9 E 12 21 - - 0.0 - - - - - - -
03/05:30am 11.9 E 13 19 - - 0.0 - - - - - - -
03/05:00am 12.0 E 11 17 - - 0.0 - - - - - - -
03/04:30am 12.2 E 10 16 - - 0.0 - - - - - - -
03/04:00am 12.4 ESE 12 19 - - 0.0 - - - - - - -
03/03:30am 12.4 E 11 16 - - 0.0 - - - - - - -
03/03:00am 12.1 E 10 17 - - 0.0 - - - - - - -
03/02:30am 12.1 E 10 16 - - 0.0 - - - - - - -
03/02:00am 12.3 ESE 10 16 - - 0.0 - - - - - - -
03/01:30am 12.5 E 8 14 - - 0.0 - - - - - - -
03/01:00am 12.3 E 5 8 - - 0.0 - - - - - - -
03/12:30am 12.3 E 5 7 - - 0.0 - - - - - - -
03/12:00am 12.5 ESE 2 5 - - 0.0 - - - - - - -
 
Date/Time
CDT
Temp
°C
Wind Pressure Rain since
9am
mm
Weather Cloud Vis
km
Sea
Height
m
Swell
Dir  Spd
kts
Gust
kts
hPa Trend Height
m
Period
s
Dir
02/11:30pm 12.9 ESE 5 10 - - 0.0 - - - - - - -
02/11:00pm 13.0 ESE 5 7 - - 0.0 - - - - - - -
02/10:30pm 13.3 ESE 7 11 - - 0.0 - - - - - - -
02/10:00pm 13.7 SE 11 16 - - 0.0 - - - - - - -
02/09:30pm 14.0 SE 12 15 - - 0.0 - - - - - - -
02/09:00pm 14.2 ESE 13 19 - - 0.0 - - - - - - -

Other Formats:

Comma delimited format used in spreadsheet applications
http://www.bom.gov.au/fwo/IDS60701/IDS60701.94808.axf

JavaScript Object Notation format (JSON) in row-major order
http://www.bom.gov.au/fwo/IDS60701/IDS60701.94808.json